Time,TemperatureF,DewpointF,PressureIn,WindDirection,WindDirectionDegrees,WindSpeedMPH,WindSpeedGustMPH,Humidity,HourlyPrecipIn,Conditions,Clouds,dailyrainin,SolarRadiationWatts/m^2,SoftwareType,DateUTC
2013-07-15 00:00:00,79.0,32.0,-100.00,SSW,200,0.0,17.0,18,0.00,,,0.00,0.000000,,2013-07-15 07:00:00,
2013-07-15 00:33:00,79.0,32.0,-100.00,SSW,200,0.0,17.0,18,0.00,,,0.00,0.000000,,2013-07-15 07:33:00,
2013-07-15 00:44:00,79.0,32.0,-100.00,SSW,200,0.0,17.0,18,0.00,,,0.00,0.000000,,2013-07-15 07:44:00,
2013-07-15 00:53:00,79.0,32.0,-100.00,SSW,200,0.0,17.0,18,0.00,,,0.00,0.000000,,2013-07-15 07:53:00,
2013-07-15 01:00:00,73.0,31.0,-100.00,NW,317,2.0,7.0,21,0.00,,,0.00,0.000000,,2013-07-15 08:00:00,
2013-07-15 01:32:00,73.0,31.0,-100.00,NW,317,2.0,7.0,21,0.00,,,0.00,0.000000,,2013-07-15 08:32:00,
2013-07-15 01:43:00,73.0,31.0,-100.00,NW,317,2.0,7.0,21,0.00,,,0.00,0.000000,,2013-07-15 08:43:00,
2013-07-15 01:53:00,73.0,31.0,-100.00,NW,317,2.0,7.0,21,0.00,,,0.00,0.000000,,2013-07-15 08:53:00,
2013-07-15 02:00:00,73.0,31.0,-100.00,ESE,105,0.0,10.0,21,0.00,,,0.00,0.000000,,2013-07-15 09:00:00,
2013-07-15 02:22:00,73.0,31.0,-100.00,ESE,105,0.0,10.0,21,0.00,,,0.00,0.000000,,2013-07-15 09:22:00,
2013-07-15 02:32:00,73.0,31.0,-100.00,ESE,105,0.0,10.0,21,0.00,,,0.00,0.000000,,2013-07-15 09:32:00,
2013-07-15 02:43:00,73.0,31.0,-100.00,ESE,105,0.0,10.0,21,0.00,,,0.00,0.000000,,2013-07-15 09:43:00,
2013-07-15 02:52:00,73.0,31.0,-100.00,ESE,105,0.0,10.0,21,0.00,,,0.00,0.000000,,2013-07-15 09:52:00,
2013-07-15 03:00:00,70.0,29.0,-100.00,WNW,302,4.0,6.0,22,0.00,,,0.00,0.000000,,2013-07-15 10:00:00,
2013-07-15 03:22:00,70.0,29.0,-100.00,WNW,302,4.0,6.0,22,0.00,,,0.00,0.000000,,2013-07-15 10:22:00,
2013-07-15 03:32:00,70.0,29.0,-100.00,WNW,302,4.0,6.0,22,0.00,,,0.00,0.000000,,2013-07-15 10:32:00,
2013-07-15 03:43:00,70.0,29.0,-100.00,WNW,302,4.0,6.0,22,0.00,,,0.00,0.000000,,2013-07-15 10:43:00,
2013-07-15 03:53:00,70.0,29.0,-100.00,WNW,302,4.0,6.0,22,0.00,,,0.00,0.000000,,2013-07-15 10:53:00,
2013-07-15 04:00:00,69.0,29.0,-100.00,NNW,347,0.0,8.0,22,0.00,,,0.00,0.000000,,2013-07-15 11:00:00,
2013-07-15 04:22:00,69.0,29.0,-100.00,NNW,347,0.0,8.0,22,0.00,,,0.00,0.000000,,2013-07-15 11:22:00,
2013-07-15 04:32:00,69.0,29.0,-100.00,NNW,347,0.0,8.0,22,0.00,,,0.00,0.000000,,2013-07-15 11:32:00,
2013-07-15 04:42:00,69.0,29.0,-100.00,NNW,347,0.0,8.0,22,0.00,,,0.00,0.000000,,2013-07-15 11:42:00,
2013-07-15 04:52:00,69.0,29.0,-100.00,NNW,347,0.0,8.0,22,0.00,,,0.00,0.000000,,2013-07-15 11:52:00,
2013-07-15 05:00:00,70.0,26.0,-100.00,NW,310,1.0,6.0,19,0.00,,,0.00,0.000000,,2013-07-15 12:00:00,
2013-07-15 05:22:00,70.0,26.0,-100.00,NW,310,1.0,6.0,19,0.00,,,0.00,0.000000,,2013-07-15 12:22:00,
2013-07-15 05:33:00,70.0,26.0,-100.00,NW,310,1.0,6.0,19,0.00,,,0.00,0.000000,,2013-07-15 12:33:00,
2013-07-15 05:42:00,70.0,26.0,-100.00,NW,310,1.0,6.0,19,0.00,,,0.00,0.000000,,2013-07-15 12:42:00,
2013-07-15 05:52:00,70.0,26.0,-100.00,NW,310,1.0,6.0,19,0.00,,,0.00,0.000000,,2013-07-15 12:52:00,
2013-07-15 06:00:00,67.0,28.0,-100.00,NW,321,0.0,6.0,23,0.00,,,0.00,0.000000,,2013-07-15 13:00:00,
2013-07-15 06:33:00,67.0,28.0,-100.00,NW,321,0.0,6.0,23,0.00,,,0.00,0.000000,,2013-07-15 13:33:00,
2013-07-15 06:43:00,67.0,28.0,-100.00,NW,321,0.0,6.0,23,0.00,,,0.00,0.000000,,2013-07-15 13:43:00,
2013-07-15 06:53:00,67.0,28.0,-100.00,NW,321,0.0,6.0,23,0.00,,,0.00,0.000000,,2013-07-15 13:53:00,
2013-07-15 07:00:00,67.0,27.0,-100.00,North,3,0.0,5.0,22,0.00,,,0.00,1.000000,,2013-07-15 14:00:00,
2013-07-15 07:33:00,67.0,27.0,-100.00,North,3,0.0,5.0,22,0.00,,,0.00,1.000000,,2013-07-15 14:33:00,
2013-07-15 07:42:00,67.0,27.0,-100.00,North,3,0.0,5.0,22,0.00,,,0.00,1.000000,,2013-07-15 14:42:00,
2013-07-15 07:58:00,67.0,27.0,-100.00,North,3,0.0,5.0,22,0.00,,,0.00,1.000000,,2013-07-15 14:58:00,
2013-07-15 08:00:00,72.0,26.0,-100.00,North,356,0.0,4.0,18,0.00,,,0.00,80.000000,,2013-07-15 15:00:00,
2013-07-15 08:40:00,72.0,26.0,-100.00,North,356,0.0,4.0,18,0.00,,,0.00,80.000000,,2013-07-15 15:40:00,
2013-07-15 08:47:00,72.0,26.0,-100.00,North,356,0.0,4.0,18,0.00,,,0.00,80.000000,,2013-07-15 15:47:00,
2013-07-15 08:53:00,72.0,26.0,-100.00,North,356,0.0,4.0,18,0.00,,,0.00,80.000000,,2013-07-15 15:53:00,
2013-07-15 09:00:00,80.0,28.0,-100.00,East,89,1.0,5.0,15,-99.99,,,0.00,351.000000,,2013-07-15 16:00:00,
2013-07-15 09:33:00,80.0,28.0,-100.00,East,89,1.0,5.0,15,-99.99,,,0.00,351.000000,,2013-07-15 16:33:00,
2013-07-15 09:47:00,80.0,28.0,-100.00,East,89,1.0,5.0,15,-99.99,,,0.00,351.000000,,2013-07-15 16:47:00,
2013-07-15 10:00:00,84.0,30.0,-100.00,ESE,111,4.0,8.0,14,0.00,,,0.00,619.000000,,2013-07-15 17:00:00,
2013-07-15 10:36:00,84.0,30.0,-100.00,ESE,111,4.0,8.0,14,0.00,,,0.00,619.000000,,2013-07-15 17:36:00,
2013-07-15 10:50:00,84.0,30.0,-100.00,ESE,111,4.0,8.0,14,0.00,,,0.00,619.000000,,2013-07-15 17:50:00,
2013-07-15 10:57:00,84.0,30.0,-100.00,ESE,111,4.0,8.0,14,0.00,,,0.00,619.000000,,2013-07-15 17:57:00,
2013-07-15 11:45:00,88.0,29.0,-100.00,SE,126,5.0,9.0,12,0.00,,,0.00,878.000000,,2013-07-15 18:45:00,
2013-07-15 11:57:00,88.0,29.0,-100.00,SE,126,5.0,9.0,12,0.00,,,0.00,878.000000,,2013-07-15 18:57:00,
2013-07-15 12:00:00,90.0,31.0,-100.00,SE,132,7.0,11.0,12,0.00,,,0.00,1095.000000,,2013-07-15 19:00:00,
2013-07-15 12:38:00,90.0,31.0,-100.00,SE,132,7.0,11.0,12,0.00,,,0.00,1095.000000,,2013-07-15 19:38:00,
2013-07-15 12:47:00,90.0,31.0,-100.00,SE,132,7.0,11.0,12,0.00,,,0.00,1095.000000,,2013-07-15 19:47:00,
2013-07-15 12:56:00,90.0,31.0,-100.00,SE,132,7.0,11.0,12,0.00,,,0.00,1095.000000,,2013-07-15 19:56:00,
2013-07-15 13:00:00,92.0,34.0,-100.00,West,280,9.0,21.0,13,0.00,,,0.00,1249.000000,,2013-07-15 20:00:00,
2013-07-15 13:29:00,92.0,34.0,-100.00,West,280,9.0,21.0,13,0.00,,,0.00,1249.000000,,2013-07-15 20:29:00,
2013-07-15 13:37:00,92.0,34.0,-100.00,West,280,9.0,21.0,13,0.00,,,0.00,1249.000000,,2013-07-15 20:37:00,
2013-07-15 13:43:00,92.0,34.0,-100.00,West,280,9.0,21.0,13,0.00,,,0.00,1249.000000,,2013-07-15 20:43:00,
2013-07-15 14:23:00,93.0,37.0,-100.00,West,267,11.0,23.0,14,0.00,,,0.00,1318.000000,,2013-07-15 21:23:00,
2013-07-15 14:40:00,93.0,37.0,-100.00,West,267,11.0,23.0,14,0.00,,,0.00,1318.000000,,2013-07-15 21:40:00,
2013-07-15 14:48:00,93.0,37.0,-100.00,West,267,11.0,23.0,14,0.00,,,0.00,1318.000000,,2013-07-15 21:48:00,
2013-07-15 15:00:00,93.0,37.0,-100.00,WNW,289,11.0,22.0,14,0.00,,,0.00,1314.000000,,2013-07-15 22:00:00,
2013-07-15 15:34:00,93.0,37.0,-100.00,WNW,289,11.0,22.0,14,0.00,,,0.00,1314.000000,,2013-07-15 22:34:00,
2013-07-15 15:43:00,93.0,37.0,-100.00,WNW,289,11.0,22.0,14,0.00,,,0.00,1314.000000,,2013-07-15 22:43:00,
2013-07-15 15:54:00,93.0,37.0,-100.00,WNW,289,11.0,22.0,14,0.00,,,0.00,1314.000000,,2013-07-15 22:54:00,
2013-07-15 16:40:00,92.0,34.0,-100.00,WNW,295,11.0,24.0,13,0.00,,,0.00,1247.000000,,2013-07-15 23:40:00,
2013-07-15 16:48:00,92.0,34.0,-100.00,WNW,295,11.0,24.0,13,0.00,,,0.00,1247.000000,,2013-07-15 23:48:00,
2013-07-15 16:54:00,92.0,34.0,-100.00,WNW,295,11.0,24.0,13,0.00,,,0.00,1247.000000,,2013-07-15 23:54:00,
2013-07-15 17:00:00,92.0,34.0,-100.00,WSW,256,13.0,21.0,13,0.00,,,0.00,1106.000000,,2013-07-16 00:00:00,
2013-07-15 17:34:00,92.0,34.0,-100.00,WSW,256,13.0,21.0,13,0.00,,,0.00,1106.000000,,2013-07-16 00:34:00,
2013-07-15 17:49:00,92.0,34.0,-100.00,WSW,256,13.0,21.0,13,0.00,,,0.00,1106.000000,,2013-07-16 00:49:00,
2013-07-15 18:00:00,90.0,34.0,-100.00,West,270,10.0,23.0,14,0.00,,,0.00,895.000000,,2013-07-16 01:00:00,
2013-07-15 18:38:00,90.0,34.0,-100.00,West,270,10.0,23.0,14,0.00,,,0.00,895.000000,,2013-07-16 01:38:00,
2013-07-15 18:49:00,90.0,34.0,-100.00,West,270,10.0,23.0,14,0.00,,,0.00,895.000000,,2013-07-16 01:49:00,
2013-07-15 18:59:00,90.0,34.0,-100.00,West,270,10.0,23.0,14,0.00,,,0.00,895.000000,,2013-07-16 01:59:00,
2013-07-15 19:00:00,87.0,34.0,-100.00,West,267,10.0,21.0,15,0.00,,,0.00,367.000000,,2013-07-16 02:00:00,
2013-07-15 19:35:00,87.0,34.0,-100.00,West,267,10.0,21.0,15,0.00,,,0.00,367.000000,,2013-07-16 02:35:00,
2013-07-15 19:50:00,87.0,34.0,-100.00,West,267,10.0,21.0,15,0.00,,,0.00,367.000000,,2013-07-16 02:50:00,
2013-07-15 20:00:00,85.0,37.0,-100.00,WNW,283,10.0,22.0,18,0.00,,,0.00,49.000000,,2013-07-16 03:00:00,
2013-07-15 20:29:00,85.0,37.0,-100.00,WNW,283,10.0,22.0,18,0.00,,,0.00,49.000000,,2013-07-16 03:29:00,
2013-07-15 20:40:00,85.0,37.0,-100.00,WNW,283,10.0,22.0,18,0.00,,,0.00,49.000000,,2013-07-16 03:40:00,
2013-07-15 20:48:00,85.0,37.0,-100.00,WNW,283,10.0,22.0,18,0.00,,,0.00,49.000000,,2013-07-16 03:48:00,
2013-07-15 20:57:00,85.0,37.0,-100.00,WNW,283,10.0,22.0,18,0.00,,,0.00,49.000000,,2013-07-16 03:57:00,